Time;durP1;ratioP1;P1;durP2;ratioP2;P2;SDS_P1;SDS_P2;PMS_P1;PMS_P2;Temp;Humidity;BMP_temperature;BMP_pressure;BME280_temperature;BME280_humidity;BME280_pressure;Samples;Min_cycle;Max_cycle;Signal;HPM_P1;HPM_P2
2022/11/02 00:01:56;;;;;;;1.47;1.47;;;20.60;72.80;;;;;;5086674;28;43434;-71
2022/11/02 00:04:25;;;;;;;1.67;1.67;;;20.50;73.00;;;;;;5087687;28;44028;-71
2022/11/02 00:06:53;;;;;;;1.57;1.57;;;20.40;73.30;;;;;;5087068;28;43666;-70
2022/11/02 00:09:21;;;;;;;1.70;1.70;;;20.40;73.90;;;;;;5086869;28;43450;-70
2022/11/02 00:11:49;;;;;;;1.57;1.57;;;20.40;73.90;;;;;;5087017;28;43406;-71
2022/11/02 00:14:16;;;;;;;1.70;1.70;;;20.30;73.80;;;;;;5087041;28;43530;-71
2022/11/02 00:16:44;;;;;;;1.40;1.40;;;20.30;73.90;;;;;;5086965;28;43604;-72
2022/11/02 00:19:12;;;;;;;1.80;1.80;;;20.20;74.00;;;;;;5086603;28;43448;-71
2022/11/02 00:21:42;;;;;;;1.67;1.60;;;20.20;74.50;;;;;;5087248;28;43431;-71
2022/11/02 00:24:10;;;;;;;1.67;1.67;;;20.20;74.30;;;;;;5087261;28;43439;-71
2022/11/02 00:26:38;;;;;;;1.50;1.50;;;20.20;74.20;;;;;;5086645;28;43923;-71
2022/11/02 00:29:05;;;;;;;1.50;1.50;;;20.20;74.20;;;;;;5086782;28;43447;-71
2022/11/02 00:31:33;;;;;;;1.40;1.40;;;20.20;74.30;;;;;;5069622;28;44084;-71
2022/11/02 00:34:01;;;;;;;1.53;1.53;;;20.10;74.60;;;;;;5068870;28;43530;-73
2022/11/02 00:36:30;;;;;;;1.57;1.57;;;20.20;74.60;;;;;;5068199;28;45991;-71
2022/11/02 00:38:59;;;;;;;1.60;1.60;;;20.20;74.40;;;;;;5086687;28;43449;-69
2022/11/02 00:41:27;;;;;;;1.50;1.50;;;20.10;74.30;;;;;;5068300;28;43432;-71
2022/11/02 00:43:55;;;;;;;1.40;1.40;;;20.10;74.40;;;;;;5085205;28;43561;-70
2022/11/02 00:46:23;;;;;;;1.60;1.60;;;20.10;75.30;;;;;;5086389;28;43980;-70
2022/11/02 00:48:51;;;;;;;1.50;1.50;;;20.10;74.80;;;;;;5086349;28;43511;-70
2022/11/02 00:51:19;;;;;;;1.50;1.50;;;20.20;74.50;;;;;;5084991;27;43445;-71
2022/11/02 00:53:47;;;;;;;1.73;1.63;;;20.30;74.10;;;;;;5086785;28;43762;-71
2022/11/02 00:56:16;;;;;;;1.33;1.33;;;20.50;73.50;;;;;;5086216;28;43993;-71
2022/11/02 00:58:44;;;;;;;1.43;1.43;;;20.60;73.00;;;;;;5086273;28;43417;-72
2022/11/02 01:01:12;;;;;;;1.50;1.50;;;20.60;72.80;;;;;;5086008;28;43498;-72
2022/11/02 01:03:40;;;;;;;1.37;1.37;;;20.60;72.70;;;;;;5085603;27;43895;-72
2022/11/02 01:06:09;;;;;;;1.43;1.43;;;20.50;72.90;;;;;;5071405;28;46004;-70
2022/11/02 01:08:37;;;;;;;1.37;1.37;;;20.40;73.10;;;;;;5082865;27;45327;-70
2022/11/02 01:11:12;;;;;;;1.40;1.40;;;20.40;73.80;;;;;;5086925;27;44114;-70
2022/11/02 01:13:41;;;;;;;1.80;1.70;;;20.40;73.80;;;;;;5089633;28;43517;-71
2022/11/02 01:16:10;;;;;;;1.50;1.50;;;20.30;73.60;;;;;;5087567;28;45393;-73
2022/11/02 01:18:38;;;;;;;1.47;1.47;;;20.30;73.80;;;;;;5085798;28;43514;-71
2022/11/02 01:21:06;;;;;;;1.27;1.20;;;20.20;73.90;;;;;;5089933;28;43465;-72
2022/11/02 01:23:34;;;;;;;1.50;1.50;;;20.20;74.40;;;;;;5071304;28;44128;-70
2022/11/02 01:26:03;;;;;;;1.40;1.40;;;20.20;74.40;;;;;;5092979;27;46253;-73
2022/11/02 01:28:31;;;;;;;1.40;1.40;;;20.20;74.20;;;;;;5089713;28;43481;-72
2022/11/02 01:31:00;;;;;;;1.50;1.50;;;20.20;74.20;;;;;;5089917;28;43391;-72
2022/11/02 01:33:29;;;;;;;1.50;1.50;;;20.10;74.30;;;;;;5090375;28;43980;-71
2022/11/02 01:35:56;;;;;;;1.40;1.40;;;20.10;74.70;;;;;;5089879;28;43596;-70
2022/11/02 01:38:24;;;;;;;1.50;1.50;;;20.10;74.70;;;;;;5089300;28;43462;-70
2022/11/02 01:40:52;;;;;;;1.40;1.30;;;20.20;74.40;;;;;;5082638;28;43768;-71
2022/11/02 01:43:21;;;;;;;1.40;1.40;;;20.40;74.00;;;;;;5089534;28;43836;-71
2022/11/02 01:45:50;;;;;;;1.43;1.43;;;20.50;73.40;;;;;;5088076;27;45906;-71
2022/11/02 01:48:19;;;;;;;1.33;1.33;;;20.50;73.20;;;;;;5089690;28;43554;-71
2022/11/02 01:50:47;;;;;;;1.17;1.17;;;20.50;73.10;;;;;;5089351;28;43406;-72
2022/11/02 01:53:15;;;;;;;1.30;1.30;;;20.40;73.20;;;;;;5091493;27;43749;-71
2022/11/02 01:55:43;;;;;;;1.40;1.40;;;20.30;73.40;;;;;;5089122;28;43938;-71
2022/11/02 01:58:12;;;;;;;1.40;1.40;;;20.30;74.00;;;;;;5088967;28;43386;-70
2022/11/02 02:00:40;;;;;;;1.40;1.40;;;20.30;74.10;;;;;;5071238;28;43394;-72
2022/11/02 02:03:09;;;;;;;1.30;1.30;;;20.20;73.90;;;;;;5070589;28;44151;-71
2022/11/02 02:05:41;;;;;;;1.30;1.30;;;20.20;74.00;;;;;;5095592;27;45711;-71
2022/11/02 02:08:09;;;;;;;1.40;1.40;;;20.20;74.20;;;;;;5070027;28;45038;-71
2022/11/02 02:10:37;;;;;;;1.60;1.50;;;20.10;74.60;;;;;;5088543;28;43518;-72
2022/11/02 02:13:06;;;;;;;1.37;1.37;;;20.10;74.50;;;;;;5070439;28;43506;-72
2022/11/02 02:15:39;;;;;;;1.20;1.20;;;20.10;74.30;;;;;;5091908;27;43960;-71
2022/11/02 02:18:10;;;;;;;1.10;1.10;;;20.10;74.30;;;;;;5090892;27;43456;-71
2022/11/02 02:20:48;;;;;;;1.33;1.33;;;20.10;74.30;;;;;;5087548;28;43438;-70
2022/11/02 02:23:34;;;;;;;1.30;1.30;;;20.10;74.90;;;;;;5069858;28;43429;-70
2022/11/02 02:26:40;;;;;;;1.40;1.40;;;20.10;74.60;;;;;;5084288;28;43765;-72
2022/11/02 02:29:10;;;;;;;1.43;1.43;;;20.30;74.30;;;;;;5036212;28;43451;-71
2022/11/02 02:31:40;;;;;;;1.60;1.50;;;20.40;73.60;;;;;;5088676;28;43422;-71
2022/11/02 02:34:11;;;;;;;1.30;1.30;;;20.50;73.20;;;;;;5088921;28;43400;-70
2022/11/02 02:36:43;;;;;;;1.80;1.23;;;20.50;73.00;;;;;;5088257;28;43913;-71
2022/11/02 02:39:13;;;;;;;1.20;1.20;;;20.50;72.90;;;;;;5088192;28;43468;-72
2022/11/02 02:41:44;;;;;;;1.30;1.30;;;20.40;73.10;;;;;;5085590;27;43529;-70
2022/11/02 02:44:17;;;;;;;1.10;1.10;;;20.40;73.50;;;;;;5070020;28;43546;-71
2022/11/02 02:46:46;;;;;;;1.30;1.30;;;20.30;74.00;;;;;;5069951;28;45655;-72
2022/11/02 02:49:22;;;;;;;1.33;1.33;;;20.20;73.80;;;;;;5067747;28;43703;-72
2022/11/02 02:51:50;;;;;;;1.17;1.17;;;20.20;73.90;;;;;;5090070;27;43457;-72
2022/11/02 02:54:20;;;;;;;1.40;1.40;;;20.20;74.00;;;;;;5071822;28;43562;-69
2022/11/02 02:56:50;;;;;;;1.27;1.27;;;20.10;74.10;;;;;;5069568;28;45455;-71
2022/11/02 02:59:22;;;;;;;1.30;1.30;;;20.10;74.40;;;;;;5069819;28;44993;-70
2022/11/02 03:01:50;;;;;;;1.30;1.30;;;20.10;74.30;;;;;;5087884;28;43340;-71
2022/11/02 03:04:18;;;;;;;1.20;1.20;;;20.10;74.30;;;;;;5089329;27;43491;-71
2022/11/02 03:06:49;;;;;;;1.20;1.20;;;20.10;74.30;;;;;;5068778;28;45648;-70
2022/11/02 03:09:19;;;;;;;1.20;1.20;;;20.00;74.30;;;;;;5069444;28;44558;-71
2022/11/02 03:11:54;;;;;;;1.23;1.23;;;20.00;74.80;;;;;;5063071;28;43902;-71
2022/11/02 03:14:30;;;;;;;1.00;1.00;;;20.10;74.50;;;;;;5085580;28;43447;-71
2022/11/02 03:17:08;;;;;;;1.27;1.27;;;20.20;74.10;;;;;;5069508;28;46105;-70
2022/11/02 03:19:41;;;;;;;1.00;1.00;;;20.40;73.60;;;;;;5089070;27;44412;-70
2022/11/02 03:22:11;;;;;;;1.40;1.40;;;20.50;73.20;;;;;;5069487;28;44039;-73
2022/11/02 03:24:43;;;;;;;1.00;1.00;;;20.50;73.10;;;;;;5086570;27;43957;-70
2022/11/02 03:27:18;;;;;;;1.00;1.00;;;20.40;73.20;;;;;;5069241;28;43965;-70
2022/11/02 03:29:51;;;;;;;1.30;1.30;;;20.30;73.40;;;;;;5092346;27;44365;-71
2022/11/02 03:32:20;;;;;;;1.30;1.30;;;20.20;73.80;;;;;;5069285;28;43381;-71
2022/11/02 03:34:51;;;;;;;1.30;1.30;;;20.20;74.10;;;;;;5070460;27;43585;-72
2022/11/02 03:37:22;;;;;;;1.00;1.00;;;20.20;73.90;;;;;;5065911;28;45608;-72
2022/11/02 03:39:50;;;;;;;1.20;1.20;;;20.20;74.00;;;;;;5087388;28;43463;-70
2022/11/02 03:42:20;;;;;;;1.00;1.00;;;20.10;74.10;;;;;;5067090;28;43910;-71
2022/11/02 03:44:55;;;;;;;1.20;1.20;;;20.10;74.40;;;;;;5087947;27;43555;-72
2022/11/02 03:47:24;;;;;;;1.10;1.10;;;20.00;74.50;;;;;;5087272;28;43578;-72
2022/11/02 03:49:52;;;;;;;1.37;1.37;;;20.10;74.40;;;;;;5058345;28;45622;-72
2022/11/02 03:52:22;;;;;;;1.13;1.13;;;20.10;74.40;;;;;;5085667;27;43406;-71
2022/11/02 03:54:53;;;;;;;1.27;1.20;;;20.00;74.30;;;;;;5069105;28;43558;-71
2022/11/02 03:57:23;;;;;;;1.23;1.23;;;20.00;74.80;;;;;;5087260;28;43922;-72
2022/11/02 03:59:54;;;;;;;1.20;1.20;;;20.00;74.80;;;;;;5065399;28;43421;-70
2022/11/02 04:02:22;;;;;;;1.30;1.30;;;20.10;74.50;;;;;;5072322;28;43958;-70
2022/11/02 04:04:51;;;;;;;1.33;1.33;;;20.30;74.10;;;;;;5085646;27;43989;-70
2022/11/02 04:07:24;;;;;;;1.20;1.20;;;20.40;73.50;;;;;;5068561;28;44069;-72
2022/11/02 04:09:52;;;;;;;1.30;1.30;;;20.50;73.20;;;;;;5086306;27;44466;-72
2022/11/02 04:15:10;;;;;;;0.93;0.93;;;20.40;73.10;;;;;;5068716;28;43627;-70
2022/11/02 04:20:23;;;;;;;1.33;1.30;;;20.20;73.70;;;;;;5068443;28;44973;-71
2022/11/02 04:25:37;;;;;;;1.63;1.50;;;20.20;74.10;;;;;;5086092;28;43419;-72
2022/11/02 04:28:14;;;;;;;1.27;1.27;;;20.10;74.10;;;;;;5086645;28;43856;-72
2022/11/02 04:30:50;;;;;;;2.10;2.00;;;20.10;74.20;;;;;;5059831;28;43444;-71
2022/11/02 04:33:31;;;;;;;3.27;2.23;;;20.00;74.60;;;;;;5067907;28;43921;-71
2022/11/02 04:36:06;;;;;;;4.07;1.80;;;20.00;74.60;;;;;;5068786;28;43581;-72
2022/11/02 04:38:40;;;;;;;1.80;1.70;;;20.00;74.50;;;;;;5089881;27;43839;-72
2022/11/02 04:44:02;;;;;;;2.70;2.50;;;20.00;74.60;;;;;;5073383;28;43401;-72
2022/11/02 04:46:33;;;;;;;2.83;2.50;;;20.00;75.00;;;;;;5087443;27;43505;-72
2022/11/02 04:49:03;;;;;;;2.97;2.40;;;20.00;74.80;;;;;;5067749;28;44036;-72
2022/11/02 04:51:33;;;;;;;2.07;1.97;;;20.10;74.30;;;;;;5063636;28;43960;-71
2022/11/02 04:54:01;;;;;;;2.80;2.60;;;20.30;73.90;;;;;;5091665;27;43398;-70
2022/11/02 04:56:29;;;;;;;2.43;2.23;;;20.40;73.40;;;;;;5064264;28;44186;-71
2022/11/02 04:59:01;;;;;;;2.87;2.40;;;20.40;73.20;;;;;;5086064;27;46049;-71
2022/11/02 05:01:33;;;;;;;2.53;2.33;;;20.40;73.30;;;;;;5070766;28;43468;-71
2022/11/02 05:04:02;;;;;;;2.30;2.10;;;20.30;73.50;;;;;;5085933;28;43913;-70
2022/11/02 05:06:33;;;;;;;3.57;2.40;;;20.20;73.80;;;;;;5067433;28;43562;-72
2022/11/02 05:09:00;;;;;;;2.63;2.43;;;20.20;74.20;;;;;;5067609;28;45560;-73
2022/11/02 05:11:29;;;;;;;2.40;2.20;;;20.20;74.20;;;;;;5063850;28;43421;-71
2022/11/02 05:13:57;;;;;;;2.40;2.20;;;20.20;74.10;;;;;;5061711;28;43419;-71
2022/11/02 05:16:27;;;;;;;2.20;2.10;;;20.10;74.20;;;;;;5068134;28;43846;-72
2022/11/02 05:18:57;;;;;;;2.67;2.47;;;20.10;74.40;;;;;;5067246;28;45675;-70
2022/11/02 05:21:25;;;;;;;2.93;2.47;;;20.00;75.40;;;;;;5090041;27;43966;-71
2022/11/02 05:23:55;;;;;;;2.20;2.10;;;20.00;74.60;;;;;;5067635;28;43478;-72
2022/11/02 05:26:23;;;;;;;2.57;2.37;;;20.00;74.50;;;;;;5067845;28;43566;-71
2022/11/02 05:28:51;;;;;;;2.67;2.43;;;20.00;74.50;;;;;;5085762;27;43867;-70
2022/11/02 05:31:20;;;;;;;2.23;1.97;;;20.00;74.60;;;;;;5084806;27;45680;-71
2022/11/02 05:33:49;;;;;;;2.67;2.47;;;20.00;75.00;;;;;;5067614;28;43939;-71
2022/11/02 05:36:22;;;;;;;2.33;2.13;;;20.00;75.00;;;;;;5067789;28;43466;-72
2022/11/02 05:38:53;;;;;;;2.17;2.07;;;20.10;74.70;;;;;;5085161;27;43846;-71
2022/11/02 05:41:21;;;;;;;2.50;2.30;;;20.20;74.30;;;;;;5088079;27;44545;-72
2022/11/02 05:43:50;;;;;;;2.30;2.10;;;20.40;73.80;;;;;;5067016;28;43376;-71
2022/11/02 05:46:20;;;;;;;2.13;2.03;;;20.40;73.40;;;;;;5067809;28;43455;-70
2022/11/02 05:48:48;;;;;;;2.47;2.20;;;20.40;73.30;;;;;;5085696;28;43871;-71
2022/11/02 05:51:16;;;;;;;2.30;2.10;;;20.30;73.40;;;;;;5085535;28;43634;-71
2022/11/02 05:53:45;;;;;;;2.50;2.30;;;20.30;73.70;;;;;;5085705;28;43434;-71
2022/11/02 05:56:13;;;;;;;2.60;2.40;;;20.20;74.00;;;;;;5085021;28;43431;-71
2022/11/02 05:58:41;;;;;;;2.63;2.43;;;20.10;74.20;;;;;;5080716;28;43874;-72
2022/11/02 06:01:10;;;;;;;2.10;1.90;;;20.10;74.10;;;;;;5082231;28;43741;-72
2022/11/02 06:03:38;;;;;;;2.33;2.20;;;20.10;74.20;;;;;;5088099;28;43411;-70
2022/11/02 06:06:07;;;;;;;2.20;2.10;;;20.10;74.40;;;;;;5073170;28;43556;-71
2022/11/02 06:08:35;;;;;;;2.20;2.10;;;20.00;74.50;;;;;;5082724;28;43930;-72
2022/11/02 06:11:09;;;;;;;2.37;2.17;;;20.00;74.80;;;;;;5087992;28;44134;-71
2022/11/02 06:13:37;;;;;;;2.30;2.10;;;20.00;74.60;;;;;;5089123;28;43486;-72
2022/11/02 06:16:06;;;;;;;2.00;1.90;;;20.00;74.60;;;;;;5089156;28;43383;-71
2022/11/02 06:18:34;;;;;;;2.33;2.23;;;20.00;74.70;;;;;;5088741;28;43603;-70
2022/11/02 06:21:02;;;;;;;1.90;1.90;;;19.90;74.80;;;;;;5087997;28;43518;-71
2022/11/02 06:23:31;;;;;;;2.27;2.07;;;20.00;75.20;;;;;;5088848;28;43931;-70
2022/11/02 06:25:59;;;;;;;2.60;2.40;;;20.00;74.90;;;;;;5092251;27;43441;-70
2022/11/02 06:28:29;;;;;;;2.37;2.27;;;20.10;74.50;;;;;;5088961;28;44127;-71
2022/11/02 06:30:58;;;;;;;1.97;1.87;;;20.30;74.00;;;;;;5092007;27;44728;-70
2022/11/02 06:33:26;;;;;;;2.27;2.10;;;20.30;73.50;;;;;;5070616;28;43428;-70
2022/11/02 06:35:54;;;;;;;2.27;2.07;;;20.40;73.40;;;;;;5089223;28;43411;-72
2022/11/02 06:38:22;;;;;;;2.10;2.00;;;20.30;73.40;;;;;;5072341;28;46165;-71
2022/11/02 06:40:54;;;;;;;1.87;1.77;;;20.20;73.60;;;;;;5082378;28;44023;-71
2022/11/02 06:43:21;;;;;;;2.20;2.10;;;20.20;74.00;;;;;;5088855;28;43324;-71
2022/11/02 06:45:53;;;;;;;1.80;1.70;;;20.10;74.30;;;;;;5089309;28;44071;-70
2022/11/02 06:48:21;;;;;;;1.90;1.80;;;20.10;74.30;;;;;;5084693;28;43939;-72
2022/11/02 06:50:49;;;;;;;2.03;1.93;;;20.10;74.30;;;;;;5088396;28;43521;-70
2022/11/02 06:53:18;;;;;;;1.93;1.83;;;20.10;74.40;;;;;;5069744;28;43470;-70
2022/11/02 06:55:50;;;;;;;2.60;2.40;;;20.00;74.40;;;;;;5088855;28;43434;-70
2022/11/02 06:58:18;;;;;;;2.30;2.13;;;20.00;74.90;;;;;;5088130;28;43999;-71
2022/11/02 07:00:46;;;;;;;1.90;1.80;;;20.00;74.80;;;;;;5083228;28;43371;-71
2022/11/02 07:03:16;;;;;;;2.00;1.90;;;20.00;74.60;;;;;;5088248;28;43467;-71
2022/11/02 07:05:48;;;;;;;2.13;2.03;;;20.00;74.70;;;;;;5073227;28;43573;-71
2022/11/02 07:08:15;;;;;;;2.10;2.00;;;20.00;74.80;;;;;;5088621;28;43924;-71
2022/11/02 07:10:43;;;;;;;2.10;2.00;;;19.90;75.20;;;;;;5088324;27;43451;-71
2022/11/02 07:13:11;;;;;;;2.00;1.90;;;20.00;75.20;;;;;;5087985;28;43372;-70
2022/11/02 07:15:39;;;;;;;2.07;1.97;;;20.00;74.80;;;;;;5088204;28;43450;-71
2022/11/02 07:18:08;;;;;;;2.17;1.97;;;20.20;74.30;;;;;;5088129;28;43944;-70
2022/11/02 07:20:37;;;;;;;2.10;2.00;;;20.30;73.80;;;;;;5071862;28;44661;-71
2022/11/02 07:23:05;;;;;;;1.70;1.70;;;20.40;73.50;;;;;;5088271;28;43769;-70
2022/11/02 07:25:34;;;;;;;1.60;1.60;;;20.30;73.40;;;;;;5088103;28;43471;-71
2022/11/02 07:28:02;;;;;;;1.60;1.60;;;20.30;73.60;;;;;;5088017;28;43599;-70
2022/11/02 07:30:30;;;;;;;1.87;1.77;;;20.20;73.70;;;;;;5088286;28;43424;-72
2022/11/02 07:32:58;;;;;;;1.73;1.70;;;20.10;74.10;;;;;;5087885;28;43520;-72
2022/11/02 07:35:26;;;;;;;1.90;1.80;;;20.10;74.40;;;;;;5088090;28;43947;-72
2022/11/02 07:37:59;;;;;;;1.77;1.77;;;20.00;74.30;;;;;;5087460;28;43825;-70
2022/11/02 07:40:27;;;;;;;1.83;1.73;;;20.00;74.30;;;;;;5083628;28;43382;-71
2022/11/02 07:42:55;;;;;;;1.80;1.70;;;20.00;74.40;;;;;;5086510;28;43559;-71
2022/11/02 07:45:35;;;;;;;1.87;1.77;;;20.00;74.60;;;;;;5068347;28;43875;-71
2022/11/02 07:48:03;;;;;;;1.80;1.70;;;19.90;74.90;;;;;;5080381;28;44051;-71
2022/11/02 07:50:30;;;;;;;2.00;1.90;;;19.90;74.80;;;;;;5086653;28;43870;-72
2022/11/02 07:53:00;;;;;;;2.20;2.10;;;19.90;74.70;;;;;;5062909;28;43447;-72
2022/11/02 07:55:29;;;;;;;1.87;1.77;;;19.90;74.70;;;;;;5087461;28;43574;-71
2022/11/02 07:57:58;;;;;;;1.87;1.77;;;19.90;74.80;;;;;;5069073;28;45657;-72
2022/11/02 08:00:27;;;;;;;1.83;1.80;;;19.90;75.30;;;;;;5087695;28;43375;-70
2022/11/02 08:02:55;;;;;;;2.00;1.80;;;19.90;75.20;;;;;;5087021;28;43396;-72
2022/11/02 08:05:24;;;;;;;1.90;1.80;;;20.00;75.00;;;;;;5088125;27;43601;-71
2022/11/02 08:08:00;;;;;;;2.50;2.30;;;20.10;74.40;;;;;;5087045;28;43754;-70
2022/11/02 08:10:30;;;;;;;1.90;1.80;;;20.30;73.90;;;;;;5085549;28;44281;-69
2022/11/02 08:13:05;;;;;;;1.90;1.80;;;20.30;73.60;;;;;;5087257;28;43415;-71
2022/11/02 08:15:33;;;;;;;1.70;1.60;;;20.30;73.50;;;;;;5087503;28;43467;-71
2022/11/02 08:18:02;;;;;;;1.83;1.80;;;20.20;73.50;;;;;;5087015;28;43902;-71
2022/11/02 08:20:31;;;;;;;1.67;1.67;;;20.20;73.80;;;;;;5086829;28;43378;-70
2022/11/02 08:23:00;;;;;;;2.00;1.90;;;20.10;74.10;;;;;;5087209;28;43449;-70
2022/11/02 08:25:28;;;;;;;1.90;1.80;;;20.00;74.40;;;;;;5087630;28;43489;-71
2022/11/02 08:27:56;;;;;;;2.03;1.93;;;20.00;74.30;;;;;;5086968;28;43924;-72
2022/11/02 08:30:24;;;;;;;1.97;1.87;;;20.00;74.40;;;;;;5083409;27;45025;-72
2022/11/02 08:32:52;;;;;;;1.70;1.60;;;20.00;74.60;;;;;;5087090;28;43796;-70
2022/11/02 08:35:23;;;;;;;2.00;1.90;;;19.90;74.60;;;;;;5087154;28;43463;-70
2022/11/02 08:37:55;;;;;;;1.57;1.47;;;19.90;75.10;;;;;;5067506;28;45755;-71
2022/11/02 08:40:24;;;;;;;1.90;1.80;;;19.90;75.60;;;;;;5062730;28;44481;-70
2022/11/02 08:42:56;;;;;;;1.87;1.77;;;19.90;74.80;;;;;;5085325;28;43480;-70
2022/11/02 08:45:24;;;;;;;1.63;1.63;;;19.90;74.80;;;;;;5086671;28;43479;-71
2022/11/02 08:47:52;;;;;;;2.00;1.83;;;19.90;74.90;;;;;;5086194;28;43781;-72
2022/11/02 08:50:20;;;;;;;1.80;1.70;;;19.80;75.30;;;;;;5093000;27;44744;-71
2022/11/02 08:52:47;;;;;;;1.87;1.77;;;19.90;75.20;;;;;;5068155;28;43529;-72
2022/11/02 08:55:15;;;;;;;1.90;1.80;;;20.00;74.90;;;;;;5085835;27;43451;-72
2022/11/02 08:57:48;;;;;;;2.00;1.90;;;20.10;74.30;;;;;;5086480;28;43899;-71
2022/11/02 09:00:16;;;;;;;2.07;1.90;;;20.20;73.90;;;;;;5086491;28;43551;-71
2022/11/02 09:02:44;;;;;;;1.80;1.70;;;20.20;73.70;;;;;;5085950;28;43378;-71
2022/11/02 09:05:12;;;;;;;1.60;1.60;;;20.20;73.70;;;;;;5086781;28;43478;-70
2022/11/02 09:07:40;;;;;;;1.60;1.50;;;20.20;73.90;;;;;;5086274;28;43899;-70
2022/11/02 09:10:09;;;;;;;1.63;1.63;;;20.10;74.10;;;;;;5086352;28;44093;-69
2022/11/02 09:12:37;;;;;;;1.60;1.60;;;20.00;74.50;;;;;;5086235;28;43470;-72
2022/11/02 09:15:07;;;;;;;1.97;1.87;;;20.00;74.70;;;;;;5086561;28;43471;-71
2022/11/02 09:17:35;;;;;;;1.77;1.67;;;20.00;74.60;;;;;;5088048;27;45629;-71
2022/11/02 09:20:03;;;;;;;1.60;1.50;;;20.00;74.60;;;;;;5086347;28;43460;-72
2022/11/02 09:22:31;;;;;;;1.53;1.53;;;19.90;74.70;;;;;;5086803;28;43952;-71
2022/11/02 09:24:59;;;;;;;1.87;1.77;;;19.90;74.90;;;;;;5087007;28;43457;-70
2022/11/02 09:27:27;;;;;;;1.40;1.40;;;19.90;75.20;;;;;;5085881;28;43916;-71
2022/11/02 09:29:55;;;;;;;1.77;1.67;;;19.90;75.00;;;;;;5086488;28;43431;-72
2022/11/02 09:32:24;;;;;;;1.60;1.60;;;19.90;75.00;;;;;;5067628;28;43426;-71
2022/11/02 09:34:52;;;;;;;1.80;1.70;;;19.80;74.90;;;;;;5087958;28;43486;-72
2022/11/02 09:37:20;;;;;;;1.63;1.63;;;19.80;75.10;;;;;;5085193;28;44051;-71
2022/11/02 09:39:48;;;;;;;1.77;1.67;;;19.80;75.40;;;;;;5089368;28;43447;-70
2022/11/02 09:42:19;;;;;;;1.90;1.80;;;19.80;75.20;;;;;;5087790;28;43552;-70
2022/11/02 09:44:49;;;;;;;1.57;1.57;;;20.00;74.90;;;;;;5083773;28;43559;-71
2022/11/02 09:47:17;;;;;;;1.43;1.43;;;20.20;74.40;;;;;;5086624;28;43598;-71
2022/11/02 09:50:07;;;;;;;1.70;1.70;;;20.20;73.80;;;;;;5089214;28;43486;-72
2022/11/02 09:52:36;;;;;;;2.20;2.10;;;20.20;73.60;;;;;;5089554;28;43422;-72
2022/11/02 09:55:05;;;;;;;1.80;1.70;;;20.20;73.70;;;;;;5089279;28;43825;-70
2022/11/02 09:57:33;;;;;;;1.80;1.70;;;20.10;73.80;;;;;;5070621;28;45649;-72
2022/11/02 10:00:01;;;;;;;1.60;1.60;;;20.10;74.10;;;;;;5089350;28;43920;-72
2022/11/02 10:02:42;;;;;;;1.90;1.80;;;20.00;74.60;;;;;;5087249;28;43426;-71
2022/11/02 10:05:32;;;;;;;1.97;1.87;;;20.00;74.60;;;;;;5089864;28;43399;-70
2022/11/02 10:08:23;;;;;;;1.40;1.40;;;20.00;74.60;;;;;;5086847;28;44004;-70
2022/11/02 10:10:57;;;;;;;1.50;1.50;;;19.90;74.60;;;;;;5072109;28;45052;-70
2022/11/02 10:13:30;;;;;;;1.70;1.60;;;19.90;75.00;;;;;;5070558;28;43398;-71
2022/11/02 10:16:00;;;;;;;1.50;1.50;;;19.90;75.30;;;;;;5090012;28;43435;-70
2022/11/02 10:18:28;;;;;;;1.60;1.60;;;19.80;74.90;;;;;;5089056;28;43688;-72
2022/11/02 10:20:58;;;;;;;1.53;1.53;;;19.80;74.90;;;;;;5089121;28;43451;-71
2022/11/02 10:23:28;;;;;;;1.50;1.50;;;19.80;75.00;;;;;;5070145;28;43579;-70
2022/11/02 10:25:56;;;;;;;1.60;1.60;;;19.80;75.00;;;;;;5070883;28;43460;-72
2022/11/02 10:28:26;;;;;;;1.53;1.47;;;19.80;75.60;;;;;;5088763;28;43808;-70
2022/11/02 10:30:54;;;;;;;1.50;1.40;;;19.80;75.30;;;;;;5088801;28;44004;-71
2022/11/02 10:33:29;;;;;;;1.73;1.70;;;20.00;75.00;;;;;;5070422;28;44210;-71
2022/11/02 10:36:13;;;;;;;1.73;1.70;;;20.10;74.50;;;;;;5089636;28;43448;-73
2022/11/02 10:38:54;;;;;;;1.83;1.73;;;20.20;74.10;;;;;;5076357;28;45463;-72
2022/11/02 10:41:36;;;;;;;1.90;1.80;;;20.20;73.80;;;;;;5088161;28;43410;-71
2022/11/02 10:44:12;;;;;;;1.50;1.50;;;20.20;73.90;;;;;;5069344;28;43459;-72
2022/11/02 10:46:45;;;;;;;1.57;1.57;;;20.10;74.00;;;;;;5089105;28;43406;-70
2022/11/02 10:49:15;;;;;;;1.70;1.60;;;20.00;74.30;;;;;;5088478;28;43594;-71
2022/11/02 10:51:45;;;;;;;1.60;1.60;;;20.00;74.70;;;;;;5088399;28;43463;-70
2022/11/02 10:54:13;;;;;;;1.47;1.47;;;20.00;74.60;;;;;;5088200;28;43469;-71
2022/11/02 10:56:49;;;;;;;1.60;1.50;;;19.90;74.70;;;;;;5089117;28;43427;-72
2022/11/02 10:59:17;;;;;;;1.50;1.50;;;19.90;74.80;;;;;;5088212;28;43900;-70
2022/11/02 11:01:46;;;;;;;1.73;1.73;;;19.90;74.90;;;;;;5086780;28;43477;-71
2022/11/02 11:04:21;;;;;;;1.57;1.57;;;19.90;75.40;;;;;;5069336;28;43487;-71
2022/11/02 11:06:51;;;;;;;1.70;1.60;;;19.90;75.10;;;;;;5088650;28;43457;-70
2022/11/02 11:09:20;;;;;;;1.60;1.60;;;20.00;74.80;;;;;;5087952;28;43907;-71
2022/11/02 11:11:53;;;;;;;1.40;1.40;;;20.00;74.60;;;;;;5082517;27;43565;-70
2022/11/02 11:14:21;;;;;;;1.67;1.67;;;20.00;74.60;;;;;;5082093;28;43518;-71
2022/11/02 11:17:14;;;;;;;1.73;1.73;;;20.00;74.80;;;;;;5087931;28;44077;-71
2022/11/02 11:20:02;;;;;;;1.60;1.60;;;20.00;74.70;;;;;;5087689;28;43684;-71
2022/11/02 11:22:36;;;;;;;1.30;1.30;;;20.00;74.60;;;;;;5081559;28;43418;-72
2022/11/02 11:25:20;;;;;;;1.47;1.47;;;19.90;74.60;;;;;;5087894;28;43781;-71
2022/11/02 11:27:54;;;;;;;1.50;1.50;;;19.90;74.80;;;;;;5085461;28;43511;-71
2022/11/02 11:30:26;;;;;;;1.50;1.50;;;19.90;75.20;;;;;;5087810;28;43914;-72
2022/11/02 11:33:15;;;;;;;1.30;1.30;;;19.90;75.10;;;;;;5080921;28;43450;-71
2022/11/02 11:35:42;;;;;;;1.57;1.57;;;19.90;75.00;;;;;;5081584;28;43422;-70
2022/11/02 11:38:16;;;;;;;1.67;1.67;;;19.90;75.00;;;;;;5084808;28;43347;-71
2022/11/02 11:40:45;;;;;;;1.40;1.40;;;19.80;75.00;;;;;;5078012;27;45936;-72
2022/11/02 11:43:14;;;;;;;1.60;1.60;;;19.80;75.30;;;;;;5086641;27;44811;-71
2022/11/02 11:45:53;;;;;;;1.40;1.40;;;19.80;75.40;;;;;;5087780;28;43427;-72
2022/11/02 11:48:25;;;;;;;1.73;1.63;;;19.90;75.90;;;;;;5092844;27;43550;-71
2022/11/02 11:50:53;;;;;;;1.70;1.70;;;20.00;74.70;;;;;;5068838;28;45866;-71
2022/11/02 11:53:23;;;;;;;1.50;1.50;;;20.20;74.20;;;;;;5087425;28;43407;-70
2022/11/02 11:55:52;;;;;;;1.43;1.37;;;20.20;73.90;;;;;;5086073;27;43593;-72
2022/11/02 11:58:21;;;;;;;1.33;1.33;;;20.20;73.90;;;;;;5087950;28;43497;-73
2022/11/02 12:01:07;;;;;;;1.70;1.70;;;20.10;74.10;;;;;;5087106;28;44073;-72
2022/11/02 12:03:50;;;;;;;1.50;1.40;;;20.00;74.30;;;;;;5068481;28;45060;-71
2022/11/02 12:06:22;;;;;;;1.67;1.50;;;20.00;74.60;;;;;;5087044;28;44027;-70
2022/11/02 12:08:54;;;;;;;1.30;1.30;;;20.00;74.90;;;;;;5068473;28;43462;-71
2022/11/02 12:11:34;;;;;;;1.30;1.30;;;19.90;74.70;;;;;;5089835;27;45931;-70
2022/11/02 12:14:21;;;;;;;1.63;1.63;;;19.90;74.70;;;;;;5087191;28;43430;-71
2022/11/02 12:17:25;;;;;;;1.53;1.53;;;19.90;74.80;;;;;;5083125;28;43466;-70
2022/11/02 12:20:14;;;;;;;1.60;1.60;;;19.80;75.20;;;;;;5086399;28;43446;-71
2022/11/02 12:22:45;;;;;;;1.30;1.30;;;19.80;75.20;;;;;;5068247;28;45587;-71
2022/11/02 12:25:29;;;;;;;1.50;1.50;;;19.80;75.20;;;;;;5087159;28;43510;-71
2022/11/02 12:27:59;;;;;;;1.40;1.40;;;19.80;75.30;;;;;;5084953;28;43924;-71
2022/11/02 12:30:29;;;;;;;1.53;1.53;;;19.80;75.40;;;;;;5087407;28;43473;-71
2022/11/02 12:33:11;;;;;;;1.40;1.40;;;19.80;75.60;;;;;;5086968;28;43713;-71
2022/11/02 12:36:04;;;;;;;1.30;1.30;;;19.80;75.50;;;;;;5086851;28;43441;-71
2022/11/02 12:38:51;;;;;;;1.40;1.40;;;19.90;75.10;;;;;;5080875;28;43840;-72
2022/11/02 12:41:26;;;;;;;1.40;1.40;;;20.10;74.60;;;;;;5085385;28;43452;-71
2022/11/02 12:43:57;;;;;;;1.40;1.40;;;20.20;74.10;;;;;;5083349;28;43605;-71
2022/11/02 12:46:32;;;;;;;1.60;1.60;;;20.20;73.90;;;;;;5080350;28;43484;-72
2022/11/02 12:49:19;;;;;;;1.23;1.23;;;20.20;74.00;;;;;;5082567;28;43409;-71
2022/11/02 12:51:49;;;;;;;1.50;1.50;;;20.10;74.10;;;;;;5086713;27;43427;-70
2022/11/02 12:54:18;;;;;;;1.40;1.40;;;20.00;74.30;;;;;;5086523;28;43627;-72
2022/11/02 12:56:48;;;;;;;1.60;1.60;;;20.00;74.80;;;;;;5086088;28;44073;-72
2022/11/02 12:59:19;;;;;;;1.30;1.30;;;20.00;74.70;;;;;;5086632;28;43467;-72
2022/11/02 13:01:49;;;;;;;1.40;1.40;;;20.00;74.70;;;;;;5086792;28;43461;-72
2022/11/02 13:04:19;;;;;;;1.30;1.30;;;19.90;74.80;;;;;;5086435;28;43686;-71
2022/11/02 13:06:58;;;;;;;1.40;1.40;;;19.90;75.00;;;;;;5069334;28;45008;-70
2022/11/02 13:09:28;;;;;;;1.50;1.50;;;19.90;75.30;;;;;;5093297;28;43391;-71
2022/11/02 13:12:00;;;;;;;1.37;1.37;;;19.90;75.30;;;;;;5093642;28;43411;-71
2022/11/02 13:14:30;;;;;;;1.20;1.20;;;19.90;76.00;;;;;;5093522;28;43566;-70
2022/11/02 13:17:01;;;;;;;1.50;1.50;;;19.80;75.30;;;;;;5093229;28;44253;-71
2022/11/02 13:19:31;;;;;;;1.47;1.47;;;19.80;75.30;;;;;;5093569;28;43553;-71